Time;durP1;ratioP1;P1;durP2;ratioP2;P2;SDS_P1;SDS_P2;PMS_P1;PMS_P2;Temp;Humidity;BMP_temperature;BMP_pressure;BME280_temperature;BME280_humidity;BME280_pressure;Samples;Min_cycle;Max_cycle;Signal;HPM_P1;HPM_P2
2022/08/17 00:01:24;;;;;;;;;;;20.80;99.90;;;;;;5048262;28;20031;-76
2022/08/17 00:03:50;;;;;;;;;;;20.80;99.90;;;;;;5047741;28;19928;-76
2022/08/17 00:06:20;;;;;;;;;;;20.80;99.90;;;;;;5047474;28;19928;-76
2022/08/17 00:08:48;;;;;;;;;;;20.80;99.90;;;;;;5047527;28;20430;-76
2022/08/17 00:11:15;;;;;;;;;;;20.80;99.90;;;;;;5048474;28;19946;-76
2022/08/17 00:13:46;;;;;;;;;;;20.80;99.90;;;;;;5048958;28;19925;-76
2022/08/17 00:16:14;;;;;;;;;;;20.80;99.90;;;;;;5049025;28;19925;-76
2022/08/17 00:18:40;;;;;;;;;;;20.80;99.90;;;;;;5047428;28;19924;-76
2022/08/17 00:21:07;;;;;;;;;;;20.80;99.90;;;;;;5049206;28;19925;-76
2022/08/17 00:23:33;;;;;;;;;;;20.70;99.90;;;;;;5047608;28;19928;-76
2022/08/17 00:25:59;;;;;;;;;;;20.70;99.90;;;;;;5048027;28;19925;-76
2022/08/17 00:28:25;;;;;;;;;;;20.70;99.90;;;;;;5048212;28;19951;-75
2022/08/17 00:30:50;;;;;;;;;;;20.70;99.90;;;;;;5047551;28;19932;-76
2022/08/17 00:33:18;;;;;;;;;;;20.70;99.90;;;;;;5048814;28;20001;-76
2022/08/17 00:35:45;;;;;;;;;;;20.70;99.90;;;;;;5048477;28;19925;-76
2022/08/17 00:38:11;;;;;;;;;;;20.70;99.90;;;;;;5048378;28;19925;-77
2022/08/17 00:40:41;;;;;;;;;;;20.60;99.90;;;;;;5046297;28;19928;-76
2022/08/17 00:43:18;;;;;;;;;;;20.60;99.90;;;;;;5047654;28;19925;-76
2022/08/17 00:45:43;;;;;;;;;;;20.70;99.90;;;;;;5043883;28;19971;-76
2022/08/17 00:48:09;;;;;;;;;;;20.60;99.90;;;;;;5048679;28;19956;-76
2022/08/17 00:50:35;;;;;;;;;;;20.60;99.90;;;;;;5046808;28;19991;-76
2022/08/17 00:53:01;;;;;;;;;;;20.60;99.90;;;;;;5047169;28;19925;-76
2022/08/17 00:55:26;;;;;;;;;;;20.60;99.90;;;;;;5047733;28;19940;-76
2022/08/17 00:57:55;;;;;;;;;;;20.60;99.90;;;;;;5048153;28;20027;-76
2022/08/17 01:00:25;;;;;;;;;;;20.60;99.90;;;;;;5047884;28;19925;-76
2022/08/17 01:02:53;;;;;;;;;;;20.50;99.90;;;;;;5048106;28;19925;-76
2022/08/17 01:05:22;;;;;;;;;;;20.60;99.90;;;;;;5048106;28;20352;-76
2022/08/17 01:07:49;;;;;;;;;;;20.60;99.90;;;;;;5047854;28;19925;-76
2022/08/17 01:10:16;;;;;;;;;;;20.50;99.90;;;;;;5046993;28;20406;-76
2022/08/17 01:12:42;;;;;;;;;;;20.50;99.90;;;;;;5047357;28;19924;-76
2022/08/17 01:15:07;;;;;;;;;;;20.50;99.90;;;;;;5047719;28;19924;-76
2022/08/17 01:17:33;;;;;;;;;;;20.50;99.90;;;;;;5047684;28;19925;-76
2022/08/17 01:19:58;;;;;;;;;;;20.50;99.90;;;;;;5047094;28;19931;-77
2022/08/17 01:22:24;;;;;;;;;;;20.50;99.90;;;;;;5046444;28;19917;-76
2022/08/17 01:25:00;;;;;;;;;;;20.50;99.90;;;;;;5045203;28;20330;-75
2022/08/17 01:27:26;;;;;;;;;;;20.40;99.90;;;;;;5046699;28;19924;-75
2022/08/17 01:29:57;;;;;;;;;;;20.40;99.90;;;;;;5046163;28;19925;-76
2022/08/17 01:32:23;;;;;;;;;;;20.40;99.90;;;;;;5047502;28;20306;-76
2022/08/17 01:34:49;;;;;;;;;;;20.40;99.90;;;;;;5046171;28;20001;-76
2022/08/17 01:37:14;;;;;;;;;;;20.40;99.90;;;;;;5047653;28;20394;-76
2022/08/17 01:39:46;;;;;;;;;;;20.40;99.90;;;;;;5044977;28;19925;-76
2022/08/17 01:42:17;;;;;;;;;;;20.40;99.90;;;;;;5047302;28;19971;-76
2022/08/17 01:44:43;;;;;;;;;;;20.40;99.90;;;;;;5045783;28;19924;-76
2022/08/17 01:47:08;;;;;;;;;;;20.40;99.90;;;;;;5047438;28;20410;-76
2022/08/17 01:49:34;;;;;;;;;;;20.30;99.90;;;;;;5047376;28;19921;-76
2022/08/17 01:52:03;;;;;;;;;;;20.30;99.90;;;;;;5047201;28;19931;-76
2022/08/17 01:54:29;;;;;;;;;;;20.30;99.90;;;;;;5046225;28;19924;-76
2022/08/17 01:56:54;;;;;;;;;;;20.30;99.90;;;;;;5047434;28;19927;-76
2022/08/17 01:59:20;;;;;;;;;;;20.20;99.90;;;;;;5047560;28;19925;-76
2022/08/17 02:01:45;;;;;;;;;;;20.20;99.90;;;;;;5046817;28;19936;-76
2022/08/17 02:04:12;;;;;;;;;;;20.20;99.90;;;;;;5047472;28;19929;-76
2022/08/17 02:06:38;;;;;;;;;;;20.10;99.90;;;;;;5046741;28;19924;-76
2022/08/17 02:09:04;;;;;;;;;;;20.10;99.90;;;;;;5044778;28;19924;-76
2022/08/17 02:11:32;;;;;;;;;;;20.10;99.90;;;;;;5045697;28;20015;-77
2022/08/17 02:13:57;;;;;;;;;;;20.10;99.90;;;;;;5047406;28;19932;-76
2022/08/17 02:16:23;;;;;;;;;;;20.10;99.90;;;;;;5047086;28;20288;-76
2022/08/17 02:18:48;;;;;;;;;;;20.00;99.90;;;;;;5046734;28;19951;-76
2022/08/17 02:21:14;;;;;;;;;;;20.00;99.90;;;;;;5045664;28;20298;-76
2022/08/17 02:23:40;;;;;;;;;;;19.90;99.90;;;;;;5046192;28;19925;-76
2022/08/17 02:26:07;;;;;;;;;;;20.00;99.90;;;;;;5051287;28;20019;-76
2022/08/17 02:28:32;;;;;;;;;;;20.00;99.90;;;;;;5051083;28;19932;-76
2022/08/17 02:31:10;;;;;;;;;;;20.00;99.90;;;;;;5050103;28;19924;-77
2022/08/17 02:33:36;;;;;;;;;;;20.00;99.90;;;;;;5050347;28;19929;-76
2022/08/17 02:36:02;;;;;;;;;;;20.00;99.90;;;;;;5031091;28;19932;-76
2022/08/17 02:38:28;;;;;;;;;;;20.00;99.90;;;;;;5031993;28;19947;-76
2022/08/17 02:40:53;;;;;;;;;;;19.90;99.90;;;;;;5028931;28;19925;-76
2022/08/17 02:43:19;;;;;;;;;;;19.90;99.90;;;;;;5030874;28;19960;-76
2022/08/17 02:45:44;;;;;;;;;;;19.80;99.90;;;;;;5030602;28;19938;-76
2022/08/17 02:48:10;;;;;;;;;;;19.90;99.90;;;;;;5031011;28;19932;-76
2022/08/17 02:50:35;;;;;;;;;;;19.90;99.90;;;;;;5030536;28;19921;-76
2022/08/17 02:53:01;;;;;;;;;;;19.90;99.90;;;;;;5045498;28;20451;-76
2022/08/17 02:55:31;;;;;;;;;;;19.80;99.90;;;;;;5050278;28;19978;-76
2022/08/17 02:57:57;;;;;;;;;;;19.80;99.90;;;;;;5049781;28;19925;-76
2022/08/17 03:00:25;;;;;;;;;;;19.80;99.90;;;;;;5049397;28;19932;-76
2022/08/17 03:02:51;;;;;;;;;;;19.80;99.90;;;;;;5050370;28;19964;-76
2022/08/17 03:05:18;;;;;;;;;;;19.80;99.90;;;;;;5049057;28;19987;-76
2022/08/17 03:07:44;;;;;;;;;;;19.80;99.90;;;;;;5050094;28;19929;-76
2022/08/17 03:10:10;;;;;;;;;;;19.80;99.90;;;;;;5031948;28;19934;-75
2022/08/17 03:12:37;;;;;;;;;;;19.80;99.90;;;;;;5048756;28;19929;-76
2022/08/17 03:15:08;;;;;;;;;;;19.80;99.90;;;;;;5050023;28;19925;-76
2022/08/17 03:17:33;;;;;;;;;;;19.80;99.90;;;;;;5050030;28;19986;-76
2022/08/17 03:19:59;;;;;;;;;;;19.80;99.90;;;;;;5048807;28;19925;-76
2022/08/17 03:22:28;;;;;;;;;;;19.80;99.90;;;;;;5050613;28;19924;-75
2022/08/17 03:24:54;;;;;;;;;;;19.80;99.90;;;;;;5048153;28;19931;-76
2022/08/17 03:27:19;;;;;;;;;;;19.70;99.90;;;;;;5049412;28;20394;-76
2022/08/17 03:29:45;;;;;;;;;;;19.70;99.90;;;;;;5049932;28;19931;-75
2022/08/17 03:32:11;;;;;;;;;;;19.70;99.90;;;;;;5049898;28;19925;-76
2022/08/17 03:34:37;;;;;;;;;;;19.70;99.90;;;;;;5049434;28;19925;-75
2022/08/17 03:37:02;;;;;;;;;;;19.70;99.90;;;;;;5050010;28;20272;-76
2022/08/17 03:39:28;;;;;;;;;;;19.70;99.90;;;;;;5049220;28;19925;-76
2022/08/17 03:41:54;;;;;;;;;;;19.70;99.90;;;;;;5049851;28;19925;-76
2022/08/17 03:44:19;;;;;;;;;;;19.70;99.90;;;;;;5048165;28;20003;-76
2022/08/17 03:57:41;;;;;;;;;;;19.70;99.90;;;;;;5049169;28;19931;-76
2022/08/17 04:00:07;;;;;;;;;;;19.60;99.90;;;;;;5048049;28;19925;-76
2022/08/17 04:02:32;;;;;;;;;;;19.60;99.90;;;;;;5049388;28;19967;-76
2022/08/17 04:04:58;;;;;;;;;;;19.60;99.90;;;;;;5049563;28;20380;-76
2022/08/17 04:07:26;;;;;;;;;;;19.50;99.90;;;;;;5048473;28;20435;-76
2022/08/17 04:09:52;;;;;;;;;;;19.50;99.90;;;;;;5047936;28;19925;-76
2022/08/17 04:12:18;;;;;;;;;;;19.50;99.90;;;;;;5049133;28;19925;-76
2022/08/17 04:14:44;;;;;;;;;;;19.50;99.90;;;;;;5047413;28;19951;-76
2022/08/17 04:17:10;;;;;;;;;;;19.50;99.90;;;;;;5049145;28;20272;-76
2022/08/17 04:19:35;;;;;;;;;;;19.50;99.90;;;;;;5048780;28;20793;-76
2022/08/17 04:22:04;;;;;;;;;;;19.50;99.90;;;;;;5048057;28;20009;-76
2022/08/17 04:24:30;;;;;;;;;;;19.50;99.90;;;;;;5047532;28;20068;-76
2022/08/17 04:26:55;;;;;;;;;;;19.50;99.90;;;;;;5049408;28;19925;-76
2022/08/17 04:29:21;;;;;;;;;;;19.50;99.90;;;;;;5047264;28;19932;-76
2022/08/17 04:31:46;;;;;;;;;;;19.50;99.90;;;;;;5048717;28;19925;-76
2022/08/17 04:34:12;;;;;;;;;;;19.50;99.90;;;;;;5043539;28;20022;-76
2022/08/17 04:36:37;;;;;;;;;;;19.50;99.90;;;;;;5028439;28;19931;-76
2022/08/17 04:39:03;;;;;;;;;;;19.50;99.90;;;;;;5027901;28;20086;-77
2022/08/17 04:44:13;;;;;;;;;;;19.50;99.90;;;;;;5048608;28;19925;-76
2022/08/17 04:46:38;;;;;;;;;;;19.50;99.90;;;;;;5047756;28;19925;-76
2022/08/17 04:49:06;;;;;;;;;;;19.50;99.90;;;;;;5048289;28;19925;-77
2022/08/17 04:51:37;;;;;;;;;;;19.50;99.90;;;;;;5048022;28;19963;-78
2022/08/17 04:54:04;;;;;;;;;;;19.60;99.90;;;;;;5029622;28;19925;-76
2022/08/17 04:56:30;;;;;;;;;;;19.60;99.90;;;;;;5048469;28;19921;-76
2022/08/17 04:58:57;;;;;;;;;;;19.60;99.90;;;;;;5048226;28;20028;-77
2022/08/17 05:01:24;;;;;;;;;;;19.70;99.90;;;;;;5048228;28;19975;-77
2022/08/17 05:03:50;;;;;;;;;;;19.60;99.90;;;;;;5047885;28;19980;-76
2022/08/17 05:06:16;;;;;;;;;;;19.60;99.90;;;;;;5047955;28;19968;-76
2022/08/17 05:08:41;;;;;;;;;;;19.60;99.90;;;;;;5045712;28;19971;-75
2022/08/17 05:11:07;;;;;;;;;;;19.60;99.90;;;;;;5047982;28;19931;-75
2022/08/17 05:13:32;;;;;;;;;;;19.60;99.90;;;;;;5046802;28;19925;-75
2022/08/17 05:15:59;;;;;;;;;;;19.60;99.90;;;;;;5048248;28;20301;-75
2022/08/17 05:18:24;;;;;;;;;;;19.60;99.90;;;;;;5048412;28;19924;-75
2022/08/17 05:20:50;;;;;;;;;;;19.60;99.90;;;;;;5046421;28;19931;-75
2022/08/17 05:23:16;;;;;;;;;;;19.60;99.90;;;;;;5047157;28;19931;-76
2022/08/17 05:25:46;;;;;;;;;;;19.60;99.90;;;;;;5047415;28;19925;-75
2022/08/17 05:28:12;;;;;;;;;;;19.60;99.90;;;;;;5047842;28;19924;-75
2022/08/17 05:30:38;;;;;;;;;;;19.60;99.90;;;;;;5044470;28;19929;-77
2022/08/17 05:33:09;;;;;;;;;;;19.60;99.90;;;;;;5035241;28;19930;-79
2022/08/17 05:35:36;;;;;;;;;;;19.70;99.90;;;;;;5042540;28;19982;-77
2022/08/17 05:38:02;;;;;;;;;;;19.60;99.90;;;;;;5044568;28;19925;-77
2022/08/17 05:40:28;;;;;;;;;;;19.60;99.90;;;;;;5044002;28;19929;-77
2022/08/17 05:43:13;;;;;;;;;;;19.50;99.90;;;;;;5044914;28;19924;-77
2022/08/17 05:45:40;;;;;;;;;;;19.50;99.90;;;;;;5043903;28;19972;-75
2022/08/17 05:48:06;;;;;;;;;;;19.50;99.90;;;;;;5046057;28;19976;-75
2022/08/17 05:50:35;;;;;;;;;;;19.40;99.90;;;;;;5047074;28;19947;-77
2022/08/17 05:53:21;;;;;;;;;;;19.40;99.90;;;;;;5044835;28;19925;-77
2022/08/17 05:56:01;;;;;;;;;;;19.40;99.90;;;;;;5044577;28;20024;-77
2022/08/17 05:58:34;;;;;;;;;;;19.50;99.90;;;;;;5045876;28;19951;-75
2022/08/17 06:01:00;;;;;;;;;;;19.50;99.90;;;;;;5045632;28;19924;-75
2022/08/17 06:03:37;;;;;;;;;;;19.50;99.90;;;;;;5047512;28;20015;-79
2022/08/17 06:06:08;;;;;;;;;;;19.60;99.90;;;;;;5046838;28;20019;-78
2022/08/17 06:08:46;;;;;;;;;;;19.60;99.90;;;;;;5045825;28;20020;-78
2022/08/17 06:11:12;;;;;;;;;;;19.60;99.90;;;;;;5046944;28;19950;-78
2022/08/17 06:13:37;;;;;;;;;;;19.70;99.90;;;;;;5046332;28;19921;-78
2022/08/17 06:16:11;;;;;;;;;;;19.70;99.90;;;;;;5046344;28;20383;-78
2022/08/17 06:18:46;;;;;;;;;;;19.70;99.90;;;;;;5046567;28;19932;-78
2022/08/17 06:21:14;;;;;;;;;;;19.70;99.90;;;;;;5046859;28;20350;-79
2022/08/17 06:23:46;;;;;;;;;;;19.70;99.90;;;;;;5045959;28;19931;-79
2022/08/17 06:26:13;;;;;;;;;;;19.80;99.90;;;;;;5045577;28;19961;-79
2022/08/17 06:28:50;;;;;;;;;;;19.80;99.90;;;;;;5046451;28;19924;-78
2022/08/17 06:31:21;;;;;;;;;;;19.80;99.90;;;;;;5046756;28;19986;-80
2022/08/17 06:33:47;;;;;;;;;;;19.80;99.90;;;;;;5046640;28;19925;-79
2022/08/17 06:36:40;;;;;;;;;;;19.80;99.90;;;;;;5045854;28;19921;-78
2022/08/17 06:39:12;;;;;;;;;;;19.80;99.90;;;;;;5044891;28;19925;-79
2022/08/17 06:41:46;;;;;;;;;;;19.80;99.90;;;;;;5046611;28;19970;-79
2022/08/17 06:44:14;;;;;;;;;;;19.80;99.90;;;;;;5046226;28;19925;-79
2022/08/17 06:46:42;;;;;;;;;;;19.80;99.90;;;;;;5046553;28;20322;-79
2022/08/17 06:49:07;;;;;;;;;;;19.90;99.90;;;;;;5029227;28;19925;-80
2022/08/17 06:51:42;;;;;;;;;;;19.80;99.90;;;;;;5046522;28;19925;-80
2022/08/17 06:54:13;;;;;;;;;;;19.80;99.90;;;;;;5045876;28;20004;-79
2022/08/17 06:56:41;;;;;;;;;;;19.80;99.90;;;;;;5044905;28;19930;-80
2022/08/17 06:59:09;;;;;;;;;;;19.80;99.90;;;;;;5046958;28;19924;-81
2022/08/17 07:01:37;;;;;;;;;;;19.80;99.90;;;;;;5046258;28;20074;-80
2022/08/17 07:04:12;;;;;;;;;;;19.80;99.90;;;;;;5045443;28;19925;-80
2022/08/17 07:06:38;;;;;;;;;;;19.90;99.90;;;;;;5045100;28;19929;-80
2022/08/17 07:09:08;;;;;;;;;;;19.80;99.90;;;;;;5045780;28;20019;-80
2022/08/17 07:11:38;;;;;;;;;;;19.80;99.90;;;;;;5051318;28;19929;-80
2022/08/17 07:14:03;;;;;;;;;;;19.90;99.90;;;;;;5035401;28;19925;-80
2022/08/17 07:16:41;;;;;;;;;;;19.90;99.90;;;;;;5039265;28;19925;-81
2022/08/17 07:19:07;;;;;;;;;;;19.90;99.90;;;;;;5049344;28;19932;-81
2022/08/17 07:21:42;;;;;;;;;;;19.90;99.90;;;;;;5048188;28;20337;-81
2022/08/17 07:24:26;;;;;;;;;;;19.90;99.90;;;;;;5044120;28;19925;-80
2022/08/17 07:27:05;;;;;;;;;;;19.90;99.90;;;;;;5036004;28;19933;-81
2022/08/17 07:29:35;;;;;;;;;;;20.00;99.90;;;;;;5038600;28;19929;-81
2022/08/17 07:32:01;;;;;;;;;;;20.00;99.90;;;;;;5041033;28;19925;-81
2022/08/17 07:34:27;;;;;;;;;;;19.90;99.90;;;;;;5044179;28;19933;-81
2022/08/17 07:37:04;;;;;;;;;;;20.00;99.90;;;;;;5040028;28;20003;-82
2022/08/17 07:39:29;;;;;;;;;;;20.00;99.90;;;;;;5043964;28;20023;-80
2022/08/17 07:42:01;;;;;;;;;;;20.00;99.90;;;;;;5059660;28;20007;-81
2022/08/17 07:44:26;;;;;;;;;;;20.00;99.90;;;;;;5042349;28;20017;-81
2022/08/17 07:49:37;;;;;;;;;;;20.00;99.90;;;;;;5045675;28;20335;-80
2022/08/17 07:52:05;;;;;;;;;;;20.00;99.90;;;;;;5046461;28;19925;-80
2022/08/17 07:54:34;;;;;;;;;;;20.00;99.90;;;;;;5048348;28;19999;-80
2022/08/17 07:57:12;;;;;;;;;;;20.00;99.90;;;;;;5046098;28;20320;-80
2022/08/17 07:59:38;;;;;;;;;;;20.00;99.90;;;;;;5047645;28;19925;-80
2022/08/17 08:02:04;;;;;;;;;;;20.00;99.90;;;;;;5049188;28;19924;-80
2022/08/17 08:04:38;;;;;;;;;;;20.00;99.90;;;;;;5047226;28;19979;-80
2022/08/17 08:07:06;;;;;;;;;;;20.00;99.90;;;;;;5049009;28;20338;-82
2022/08/17 08:09:37;;;;;;;;;;;20.10;99.90;;;;;;5047525;28;19929;-81
2022/08/17 08:12:20;;;;;;;;;;;20.10;99.90;;;;;;5040395;28;20376;-80
2022/08/17 08:14:55;;;;;;;;;;;20.10;99.90;;;;;;5047878;28;19924;-80
2022/08/17 08:17:36;;;;;;;;;;;20.10;99.90;;;;;;5049050;28;20015;-80
2022/08/17 08:20:07;;;;;;;;;;;20.10;99.90;;;;;;5051576;28;19929;-80
2022/08/17 08:22:54;;;;;;;;;;;20.10;99.90;;;;;;5057649;28;19925;-80
2022/08/17 08:25:23;;;;;;;;;;;20.10;99.90;;;;;;5039173;28;19924;-81
2022/08/17 08:28:14;;;;;;;;;;;20.00;99.90;;;;;;5067392;28;20389;-81
2022/08/17 08:30:45;;;;;;;;;;;20.00;99.90;;;;;;5028912;28;20375;-81
2022/08/17 08:33:20;;;;;;;;;;;20.00;99.90;;;;;;5048275;28;19925;-79
2022/08/17 08:35:52;;;;;;;;;;;20.00;99.90;;;;;;5030243;28;20505;-79
2022/08/17 08:38:33;;;;;;;;;;;20.00;99.90;;;;;;5040752;28;19972;-80
2022/08/17 08:41:11;;;;;;;;;;;20.00;99.90;;;;;;5061135;28;19924;-80
2022/08/17 08:43:55;;;;;;;;;;;20.00;99.90;;;;;;5066620;28;20386;-80
2022/08/17 08:46:23;;;;;;;;;;;20.00;99.90;;;;;;5039955;28;19925;-82
2022/08/17 08:48:54;;;;;;;;;;;19.90;99.90;;;;;;5041293;28;20042;-79
2022/08/17 08:51:26;;;;;;;;;;;19.90;99.90;;;;;;5056350;28;19970;-78
2022/08/17 08:54:01;;;;;;;;;;;19.80;99.90;;;;;;5054525;28;20422;-79
2022/08/17 08:56:32;;;;;;;;;;;19.80;99.90;;;;;;5036100;28;20279;-79
2022/08/17 08:59:06;;;;;;;;;;;19.80;99.90;;;;;;5034693;28;20329;-79
2022/08/17 09:01:31;;;;;;;;;;;19.70;99.90;;;;;;5033007;28;19996;-79
2022/08/17 09:04:03;;;;;;;;;;;19.70;99.90;;;;;;5052724;28;19936;-77
2022/08/17 09:07:07;;;;;;;;;;;19.70;99.90;;;;;;5034909;28;19983;-77
2022/08/17 09:09:48;;;;;;;;;;;19.60;99.90;;;;;;4962844;28;19929;-77
2022/08/17 09:12:14;;;;;;;;;;;19.60;99.90;;;;;;4965094;28;20390;-77
2022/08/17 09:14:43;;;;;;;;;;;19.60;99.90;;;;;;5001378;28;19926;-77
2022/08/17 09:17:11;;;;;;;;;;;19.60;99.90;;;;;;5027023;28;19925;-83
2022/08/17 09:19:39;;;;;;;;;;;19.60;99.90;;;;;;5037054;28;19956;-79
2022/08/17 09:22:10;;;;;;;;;;;19.60;99.90;;;;;;5039344;28;20380;-79
2022/08/17 09:24:40;;;;;;;;;;;19.60;99.90;;;;;;5043155;28;19925;-79
2022/08/17 09:27:05;;;;;;;;;;;19.60;99.90;;;;;;5047995;28;19928;-79
2022/08/17 09:29:35;;;;;;;;;;;19.50;99.90;;;;;;5035421;28;20414;-80
2022/08/17 09:32:15;;;;;;;;;;;19.50;99.90;;;;;;5035835;28;20367;-79
2022/08/17 09:34:52;;;;;;;;;;;19.50;99.90;;;;;;5040428;28;20239;-79
2022/08/17 09:37:24;;;;;;;;;;;19.50;99.90;;;;;;5040369;28;19925;-79
2022/08/17 09:40:08;;;;;;;;;;;19.50;99.90;;;;;;5039542;28;19955;-79
2022/08/17 09:42:51;;;;;;;;;;;19.50;99.90;;;;;;5036768;28;20368;-80
2022/08/17 09:45:19;;;;;;;;;;;19.50;99.90;;;;;;5045157;28;19932;-80
2022/08/17 09:47:51;;;;;;;;;;;19.50;99.90;;;;;;5042160;28;19925;-80
2022/08/17 09:50:23;;;;;;;;;;;19.50;99.90;;;;;;5036797;28;19960;-80
2022/08/17 09:52:52;;;;;;;;;;;19.50;99.90;;;;;;5040804;28;20154;-80
2022/08/17 09:55:18;;;;;;;;;;;19.60;99.90;;;;;;5041717;28;20558;-80
2022/08/17 09:57:44;;;;;;;;;;;19.50;99.90;;;;;;5038981;28;19932;-79
2022/08/17 10:00:15;;;;;;;;;;;19.50;99.90;;;;;;5039652;28;19929;-80
2022/08/17 10:02:59;;;;;;;;;;;19.50;99.90;;;;;;5043977;28;19948;-80
2022/08/17 10:05:38;;;;;;;;;;;19.40;99.90;;;;;;5042567;28;19994;-80
2022/08/17 10:08:15;;;;;;;;;;;19.40;99.90;;;;;;5041922;28;19932;-80
2022/08/17 10:10:54;;;;;;;;;;;19.40;99.90;;;;;;5044115;28;19975;-80
2022/08/17 10:13:26;;;;;;;;;;;19.30;99.90;;;;;;5046132;28;19925;-79
2022/08/17 10:15:55;;;;;;;;;;;19.20;99.90;;;;;;5046102;28;19925;-79
2022/08/17 10:18:25;;;;;;;;;;;19.10;99.90;;;;;;5044836;28;19971;-79
2022/08/17 10:26:11;;;;;;;;;;;19.00;99.90;;;;;;5044988;28;19978;-79
2022/08/17 10:26:25;;;;;;;;;;;18.80;99.90;;;;;;5045953;28;19931;-79
2022/08/17 10:28:58;;;;;;;;;;;18.80;99.90;;;;;;5046617;28;19932;-79
2022/08/17 10:31:27;;;;;;;;;;;18.80;99.90;;;;;;5045088;28;19974;-79
2022/08/17 10:33:53;;;;;;;;;;;18.80;99.90;;;;;;5041514;28;19925;-79
2022/08/17 10:36:24;;;;;;;;;;;18.80;99.90;;;;;;5039203;28;19929;-80
2022/08/17 10:39:02;;;;;;;;;;;18.80;99.90;;;;;;5034573;28;19925;-81
2022/08/17 10:41:29;;;;;;;;;;;18.80;99.90;;;;;;5049813;28;19979;-79
2022/08/17 10:44:13;;;;;;;;;;;18.70;99.90;;;;;;5039079;28;20543;-79
2022/08/17 10:46:38;;;;;;;;;;;18.70;99.90;;;;;;5049776;28;20400;-78
2022/08/17 10:49:16;;;;;;;;;;;18.70;99.90;;;;;;5066540;28;19981;-78
2022/08/17 10:51:42;;;;;;;;;;;18.80;99.90;;;;;;5030996;28;19925;-78
2022/08/17 10:54:28;;;;;;;;;;;18.80;99.90;;;;;;5037866;28;19968;-77
2022/08/17 10:56:54;;;;;;;;;;;18.90;99.90;;;;;;5049998;28;20474;-79
2022/08/17 10:59:35;;;;;;;;;;;19.00;99.90;;;;;;5054189;28;20015;-89
2022/08/17 11:02:03;;;;;;;;;;;19.00;99.90;;;;;;5072326;28;19925;-87
2022/08/17 11:04:41;;;;;;;;;;;19.00;99.90;;;;;;5054250;28;19964;-88
2022/08/17 11:07:26;;;;;;;;;;;19.00;99.90;;;;;;5050196;28;19925;-80
2022/08/17 11:09:52;;;;;;;;;;;19.00;99.90;;;;;;5045623;28;19924;-79
2022/08/17 11:12:32;;;;;;;;;;;19.00;99.90;;;;;;5048684;28;20332;-79
2022/08/17 11:15:01;;;;;;;;;;;19.00;99.90;;;;;;5048719;28;19925;-79
2022/08/17 11:17:40;;;;;;;;;;;19.00;99.90;;;;;;5050088;28;19932;-79
2022/08/17 11:20:18;;;;;;;;;;;19.00;99.90;;;;;;5048417;28;20362;-80
2022/08/17 11:23:02;;;;;;;;;;;19.00;99.90;;;;;;5048217;28;19925;-77
2022/08/17 11:25:43;;;;;;;;;;;19.00;99.90;;;;;;5048337;28;19924;-77
2022/08/17 11:28:22;;;;;;;;;;;19.00;99.90;;;;;;5049549;28;20396;-78
2022/08/17 11:30:50;;;;;;;;;;;19.10;99.90;;;;;;5047774;28;19929;-78
2022/08/17 11:33:33;;;;;;;;;;;19.10;99.90;;;;;;5049384;28;19985;-77
2022/08/17 11:36:04;;;;;;;;;;;19.10;99.90;;;;;;5047840;28;20381;-77
2022/08/17 11:38:41;;;;;;;;;;;19.20;99.90;;;;;;5046397;28;20379;-77
2022/08/17 11:41:09;;;;;;;;;;;19.30;99.90;;;;;;5049260;28;19924;-77
2022/08/17 11:43:35;;;;;;;;;;;19.40;99.90;;;;;;5062545;28;20387;-79
2022/08/17 11:46:01;;;;;;;;;;;19.40;99.90;;;;;;5048769;28;19935;-78
2022/08/17 11:51:43;;;;;;;;;;;19.50;99.90;;;;;;5041846;28;19968;-80
2022/08/17 11:54:15;;;;;;;;;;;19.60;99.90;;;;;;5042676;28;19925;-76
2022/08/17 11:56:45;;;;;;;;;;;19.60;99.90;;;;;;5045533;28;20276;-75
2022/08/17 11:59:31;;;;;;;;;;;19.70;99.90;;;;;;5042775;28;20323;-75
2022/08/17 12:01:57;;;;;;;;;;;19.70;99.90;;;;;;5025182;28;19924;-75
2022/08/17 12:04:25;;;;;;;;;;;19.70;99.90;;;;;;5031368;28;20285;-76
2022/08/17 12:06:53;;;;;;;;;;;19.70;99.90;;;;;;5042999;28;20011;-76
2022/08/17 12:09:20;;;;;;;;;;;19.80;99.90;;;;;;5033874;28;19925;-76
2022/08/17 12:11:54;;;;;;;;;;;19.80;99.90;;;;;;5049483;28;20374;-74
2022/08/17 12:14:25;;;;;;;;;;;19.90;99.90;;;;;;5046242;28;20041;-74
2022/08/17 12:16:58;;;;;;;;;;;19.90;99.90;;;;;;5047159;28;20291;-75
2022/08/17 12:19:26;;;;;;;;;;;19.90;99.90;;;;;;5048489;28;19916;-75
2022/08/17 12:21:56;;;;;;;;;;;20.00;99.90;;;;;;5048078;28;20496;-76
2022/08/17 12:24:58;;;;;;;;;;;20.00;99.90;;;;;;5045927;28;19931;-75
2022/08/17 12:27:30;;;;;;;;;;;19.90;99.90;;;;;;4970956;28;20345;-76
2022/08/17 12:29:56;;;;;;;;;;;20.00;99.90;;;;;;5038793;28;19932;-78
2022/08/17 12:32:26;;;;;;;;;;;20.00;99.90;;;;;;5047035;28;20287;-81
2022/08/17 12:34:52;;;;;;;;;;;20.10;99.90;;;;;;5045747;28;19925;-75
2022/08/17 12:37:23;;;;;;;;;;;20.10;99.90;;;;;;5057178;28;19928;-78
2022/08/17 12:39:51;;;;;;;;;;;20.10;99.90;;;;;;5047619;28;20011;-78
2022/08/17 12:42:21;;;;;;;;;;;20.20;99.90;;;;;;5043090;28;19932;-78
2022/08/17 12:44:46;;;;;;;;;;;20.30;99.90;;;;;;5036930;28;19929;-75
2022/08/17 12:47:18;;;;;;;;;;;20.30;99.90;;;;;;5046624;28;19931;-75
2022/08/17 12:49:47;;;;;;;;;;;20.40;99.90;;;;;;5047145;28;19937;-76
2022/08/17 12:52:18;;;;;;;;;;;20.40;99.90;;;;;;5040353;28;20585;-77
2022/08/17 12:54:47;;;;;;;;;;;20.40;99.90;;;;;;5042849;28;19928;-76
2022/08/17 12:57:14;;;;;;;;;;;20.50;99.90;;;;;;5026857;28;19925;-75
2022/08/17 12:59:41;;;;;;;;;;;20.50;99.90;;;;;;5039919;28;20009;-74
2022/08/17 13:02:09;;;;;;;;;;;20.60;99.90;;;;;;5046867;28;19924;-75
2022/08/17 13:04:38;;;;;;;;;;;20.60;99.90;;;;;;5046037;28;19968;-74
2022/08/17 13:07:04;;;;;;;;;;;20.60;99.90;;;;;;5046961;28;19924;-75
2022/08/17 13:09:30;;;;;;;;;;;20.60;99.90;;;;;;5046510;28;19932;-74
2022/08/17 13:12:00;;;;;;;;;;;20.70;99.90;;;;;;5048815;28;19932;-75
2022/08/17 13:14:26;;;;;;;;;;;20.70;99.90;;;;;;5048347;28;19925;-75
2022/08/17 13:16:54;;;;;;;;;;;20.70;99.90;;;;;;5047914;28;19939;-74
2022/08/17 13:19:21;;;;;;;;;;;20.70;99.90;;;;;;5048006;28;19983;-74
2022/08/17 13:21:52;;;;;;;;;;;20.70;99.90;;;;;;5046000;28;19982;-75
2022/08/17 13:24:19;;;;;;;;;;;20.60;99.90;;;;;;5047859;28;19994;-75
2022/08/17 13:26:47;;;;;;;;;;;20.60;99.90;;;;;;5047547;28;19924;-75
2022/08/17 13:29:30;;;;;;;;;;;20.60;99.90;;;;;;5047553;28;19931;-75
2022/08/17 13:32:02;;;;;;;;;;;20.60;99.90;;;;;;5046365;28;19931;-75
2022/08/17 13:34:28;;;;;;;;;;;20.60;99.90;;;;;;5046477;28;19925;-75
2022/08/17 13:37:12;;;;;;;;;;;20.60;99.90;;;;;;5045976;28;19924;-75
2022/08/17 13:39:41;;;;;;;;;;;20.60;99.90;;;;;;5047247;28;19985;-74
2022/08/17 13:42:27;;;;;;;;;;;20.60;99.90;;;;;;5047181;28;19924;-75
2022/08/17 13:44:52;;;;;;;;;;;20.60;99.90;;;;;;5046613;28;19959;-74
2022/08/17 13:47:20;;;;;;;;;;;20.60;99.90;;;;;;5046984;28;21277;-74
2022/08/17 13:49:46;;;;;;;;;;;20.60;99.90;;;;;;5047082;28;19925;-74
2022/08/17 13:52:32;;;;;;;;;;;20.70;99.90;;;;;;5046697;28;19924;-74
2022/08/17 13:55:00;;;;;;;;;;;20.70;99.90;;;;;;5056252;28;19924;-75
2022/08/17 13:57:25;;;;;;;;;;;20.70;99.90;;;;;;5067550;28;19970;-75
2022/08/17 13:59:55;;;;;;;;;;;20.80;99.90;;;;;;5067268;28;19928;-74
2022/08/17 14:02:22;;;;;;;;;;;20.80;99.90;;;;;;5048510;28;20406;-74
2022/08/17 14:04:47;;;;;;;;;;;20.80;99.90;;;;;;5047061;28;20374;-74
2022/08/17 14:07:14;;;;;;;;;;;20.80;99.90;;;;;;5046446;28;19925;-74
2022/08/17 14:09:50;;;;;;;;;;;20.90;99.90;;;;;;5045536;28;20007;-75
2022/08/17 14:12:18;;;;;;;;;;;20.90;99.90;;;;;;5047153;28;19975;-75
2022/08/17 14:14:44;;;;;;;;;;;20.90;99.90;;;;;;5045954;28;19929;-75
2022/08/17 14:17:10;;;;;;;;;;;20.90;99.90;;;;;;5045540;28;19925;-75
2022/08/17 14:19:36;;;;;;;;;;;21.00;99.90;;;;;;5046178;28;19925;-75
2022/08/17 14:22:01;;;;;;;;;;;21.00;99.90;;;;;;5046257;28;20062;-75
2022/08/17 14:24:28;;;;;;;;;;;21.00;99.90;;;;;;5047312;28;20440;-75
2022/08/17 14:26:54;;;;;;;;;;;21.00;99.90;;;;;;5045292;28;19936;-75
2022/08/17 14:29:20;;;;;;;;;;;21.00;99.90;;;;;;5046828;28;20371;-75
2022/08/17 14:31:46;;;;;;;;;;;21.00;99.90;;;;;;5046716;28;19995;-75
2022/08/17 14:34:12;;;;;;;;;;;21.00;99.90;;;;;;5047007;28;20280;-75
2022/08/17 14:36:39;;;;;;;;;;;21.00;99.90;;;;;;5045715;28;19932;-75
2022/08/17 14:39:04;;;;;;;;;;;20.90;99.90;;;;;;5046944;28;19991;-77
2022/08/17 14:41:30;;;;;;;;;;;20.80;99.90;;;;;;5046323;28;20444;-77
2022/08/17 14:43:55;;;;;;;;;;;20.70;99.90;;;;;;5029022;28;20031;-78
2022/08/17 14:46:21;;;;;;;;;;;20.50;99.90;;;;;;5044742;28;19924;-78
2022/08/17 14:48:47;;;;;;;;;;;20.30;99.90;;;;;;5046016;28;19924;-78
2022/08/17 14:51:14;;;;;;;;;;;20.20;99.90;;;;;;5046248;28;19932;-78
2022/08/17 14:53:40;;;;;;;;;;;20.00;99.90;;;;;;5044873;28;20007;-78